Etusivu
METAR-TAF:

METAR-TAF

Lentoasemat :

Saint-Brieuc, Ranska

Leveyspiiri: 48-32N, Pituuspiiri: 002-51W, korkeus merenpinnasta: 138 m

Tämänhetkinen sää

Tämä raportti tehtiin 25 minuuttia sitten, kello 19.00 UTC
Tuuli 7 kn lännestä
Lämpötila 4°C
Kosteus 87%
Ilmanpaine 1006 hPa
Näkyvyys 10 km tai enemmän
Muutamia pilviä 4000 ft:n korkeudessa

METAR: LFRT 121900Z AUTO 27007KT 9999 FEW040 04/02 Q1006

Aika: 20:25 (19:25 UTC)


TAF: puuttuu

Säähavainnot ja -ennusteet yli 4000 lentoasemalta (METAR- ja TAF-raportit).

Käytössä olevat sääasemat on merkitty karttaan keltaisilla ja punaisilla pisteillä.

Aseta hiiri pisteen päälle nähdäksesi sääaseman nimen.

Klikkaa sitten nähdäksesi säähavainnot ja -ennusteet.

Kartan vaihtaminen: klikkaa mustalla rastilla varustettuja vihreitä pisteitä, niin voit zoomata sisään; viivalla varustettua vihreää pistettä, niin voit zoomata ulos tai vihreitä nuolia, niin pääset viereisille kartoille.


METAR-TAF: